Time;durP1;ratioP1;P1;durP2;ratioP2;P2;SDS_P1;SDS_P2;PMS_P1;PMS_P2;Temp;Humidity;BMP_temperature;BMP_pressure;BME280_temperature;BME280_humidity;BME280_pressure;Samples;Min_cycle;Max_cycle;Signal;HPM_P1;HPM_P2
2023/12/18 00:01:33;;;;;;;32.43;13.00;;;2.90;99.90;;;;;;5120160;28;20020;-85
2023/12/18 00:04:03;;;;;;;34.80;12.93;;;2.90;99.90;;;;;;5103137;28;20122;-85
2023/12/18 00:06:29;;;;;;;29.73;11.47;;;2.80;99.90;;;;;;5102414;28;20028;-85
2023/12/18 00:08:54;;;;;;;30.00;10.80;;;2.80;99.90;;;;;;5103145;28;20051;-85
2023/12/18 00:11:20;;;;;;;40.07;11.53;;;2.80;99.90;;;;;;5121209;28;20094;-85
2023/12/18 00:13:45;;;;;;;33.27;12.70;;;2.70;99.90;;;;;;5102629;28;20036;-85
2023/12/18 00:16:11;;;;;;;35.17;11.77;;;2.70;99.90;;;;;;5102578;28;20031;-85
2023/12/18 00:18:36;;;;;;;55.17;12.70;;;2.70;99.90;;;;;;5102209;28;20119;-85
2023/12/18 00:21:03;;;;;;;32.53;11.97;;;2.60;99.90;;;;;;5102787;28;20380;-84
2023/12/18 00:23:28;;;;;;;37.53;11.27;;;2.60;99.90;;;;;;5102270;28;20115;-85
2023/12/18 00:25:54;;;;;;;32.27;11.70;;;2.60;99.90;;;;;;5120496;28;20047;-85
2023/12/18 00:28:20;;;;;;;38.83;11.03;;;2.60;99.90;;;;;;5102614;28;20031;-85
2023/12/18 00:30:46;;;;;;;36.47;11.20;;;2.60;99.90;;;;;;5102200;28;20464;-85
2023/12/18 00:33:11;;;;;;;30.00;11.33;;;2.60;99.90;;;;;;5102834;28;20027;-85
2023/12/18 00:35:37;;;;;;;40.83;11.63;;;2.60;99.90;;;;;;5102319;28;20069;-85
2023/12/18 00:38:02;;;;;;;33.43;11.63;;;2.60;99.90;;;;;;5102773;28;20023;-85
2023/12/18 00:40:28;;;;;;;30.50;10.13;;;2.60;99.90;;;;;;5102055;28;20126;-85
2023/12/18 00:42:54;;;;;;;36.00;12.60;;;2.60;99.90;;;;;;5102596;28;20537;-84
2023/12/18 00:45:19;;;;;;;34.83;11.43;;;2.60;99.90;;;;;;5120587;28;20020;-85
2023/12/18 00:47:45;;;;;;;42.00;10.83;;;2.60;99.90;;;;;;5102088;28;20024;-85
2023/12/18 00:50:10;;;;;;;43.33;12.47;;;2.60;99.90;;;;;;5102636;28;20028;-84
2023/12/18 00:52:36;;;;;;;29.53;10.67;;;2.60;99.90;;;;;;5120024;28;20036;-85
2023/12/18 00:55:02;;;;;;;52.33;12.13;;;2.60;99.90;;;;;;5102530;28;20027;-84
2023/12/18 00:57:28;;;;;;;33.20;12.03;;;2.60;99.90;;;;;;5102700;28;20119;-85
2023/12/18 00:59:54;;;;;;;32.63;11.13;;;2.50;99.90;;;;;;5099478;28;20020;-84
2023/12/18 01:02:19;;;;;;;35.90;12.03;;;2.60;99.90;;;;;;5098975;28;20528;-85
2023/12/18 01:04:45;;;;;;;28.53;10.60;;;2.60;99.90;;;;;;5098447;28;20023;-85
2023/12/18 01:07:10;;;;;;;31.37;10.77;;;2.60;99.90;;;;;;5117194;28;20035;-85
2023/12/18 01:09:36;;;;;;;31.57;10.90;;;2.60;99.90;;;;;;5098566;28;20034;-85
2023/12/18 01:12:01;;;;;;;33.70;11.87;;;2.60;99.90;;;;;;5116788;28;20031;-84
2023/12/18 01:14:27;;;;;;;46.13;11.53;;;2.60;99.90;;;;;;5098697;28;20032;-84
2023/12/18 01:16:54;;;;;;;31.60;11.53;;;2.60;99.90;;;;;;5116535;28;20023;-85
2023/12/18 01:19:20;;;;;;;38.50;12.37;;;2.60;99.90;;;;;;5099022;28;20035;-85
2023/12/18 01:21:45;;;;;;;45.33;12.73;;;2.60;99.90;;;;;;5098442;28;20019;-85
2023/12/18 01:24:11;;;;;;;36.70;12.30;;;2.60;99.90;;;;;;5116861;28;20059;-85
2023/12/18 01:26:37;;;;;;;29.47;11.27;;;2.60;99.90;;;;;;5098212;28;20030;-85
2023/12/18 01:29:04;;;;;;;30.40;12.03;;;2.60;99.90;;;;;;5098848;28;20034;-85
2023/12/18 01:31:29;;;;;;;31.23;11.87;;;2.60;99.90;;;;;;5098721;28;20019;-84
2023/12/18 01:33:55;;;;;;;30.87;11.13;;;2.60;99.90;;;;;;5098118;28;20034;-85
2023/12/18 01:36:22;;;;;;;30.87;11.20;;;2.60;99.90;;;;;;5116665;28;20032;-84
2023/12/18 01:38:47;;;;;;;26.77;11.30;;;2.60;99.90;;;;;;5098087;28;20081;-86
2023/12/18 01:41:13;;;;;;;31.87;11.30;;;2.60;99.90;;;;;;5115958;28;20502;-85
2023/12/18 01:43:39;;;;;;;31.90;12.33;;;2.60;99.90;;;;;;5116035;28;20031;-85
2023/12/18 01:46:05;;;;;;;31.77;11.83;;;2.50;99.90;;;;;;5116647;28;20031;-85
2023/12/18 01:48:32;;;;;;;26.73;10.37;;;2.50;99.90;;;;;;5116504;28;20053;-84
2023/12/18 01:50:59;;;;;;;29.13;12.07;;;2.50;99.90;;;;;;5116038;28;20047;-84
2023/12/18 01:53:28;;;;;;;26.87;10.80;;;2.50;99.90;;;;;;5098216;28;20058;-84
2023/12/18 01:55:55;;;;;;;25.27;10.97;;;2.50;99.90;;;;;;5097804;28;20031;-84
2023/12/18 01:58:21;;;;;;;26.23;11.77;;;2.50;99.90;;;;;;5116121;28;20035;-85
2023/12/18 02:00:47;;;;;;;30.70;11.43;;;2.50;99.90;;;;;;5097450;28;20024;-84
2023/12/18 02:03:16;;;;;;;31.27;11.33;;;2.50;99.90;;;;;;5097935;28;20115;-84
2023/12/18 02:05:44;;;;;;;26.87;12.10;;;2.50;99.90;;;;;;5097325;28;20046;-84
2023/12/18 02:08:10;;;;;;;26.27;11.40;;;2.50;99.90;;;;;;5116127;28;20081;-84
2023/12/18 02:10:37;;;;;;;27.17;10.57;;;2.50;99.90;;;;;;5097015;28;20176;-85
2023/12/18 02:13:03;;;;;;;26.93;10.53;;;2.50;99.90;;;;;;5097389;28;20038;-84
2023/12/18 02:15:29;;;;;;;26.43;10.90;;;2.50;99.90;;;;;;5115807;28;20031;-83
2023/12/18 02:17:55;;;;;;;23.33;10.43;;;2.40;99.90;;;;;;5115245;28;20544;-84
2023/12/18 02:20:20;;;;;;;22.67;10.73;;;2.40;99.90;;;;;;5097706;28;20023;-83
2023/12/18 02:22:46;;;;;;;27.53;11.30;;;2.40;99.90;;;;;;5097222;28;20028;-83
2023/12/18 02:25:12;;;;;;;25.03;11.50;;;2.40;99.90;;;;;;5115466;28;20020;-84
2023/12/18 02:27:38;;;;;;;25.80;10.67;;;2.40;99.90;;;;;;5096997;28;20034;-84
2023/12/18 02:30:04;;;;;;;26.87;11.27;;;2.40;99.90;;;;;;5097429;28;20027;-83
2023/12/18 02:32:30;;;;;;;24.37;10.73;;;2.40;99.90;;;;;;5097822;28;20480;-83
2023/12/18 02:34:56;;;;;;;25.40;10.27;;;2.30;99.90;;;;;;5097142;28;20024;-84
2023/12/18 02:37:23;;;;;;;25.47;10.70;;;2.30;99.90;;;;;;5097448;28;20032;-83
2023/12/18 02:39:49;;;;;;;24.47;10.13;;;2.40;99.90;;;;;;5096523;28;20051;-84
2023/12/18 02:42:14;;;;;;;24.93;10.63;;;2.40;99.90;;;;;;5097642;28;20103;-84
2023/12/18 02:44:40;;;;;;;25.03;10.57;;;2.30;99.90;;;;;;5096823;28;20118;-84
2023/12/18 02:47:05;;;;;;;24.37;10.33;;;2.30;99.90;;;;;;5097273;28;20023;-84
2023/12/18 02:49:31;;;;;;;25.03;10.87;;;2.30;99.90;;;;;;5097277;28;20040;-84
2023/12/18 02:51:57;;;;;;;25.40;10.47;;;2.30;99.90;;;;;;5114707;28;20027;-84
2023/12/18 02:54:22;;;;;;;23.00;10.73;;;2.30;99.90;;;;;;5097163;28;20034;-84
2023/12/18 02:56:48;;;;;;;22.40;10.43;;;2.40;99.90;;;;;;5114629;28;20073;-84
2023/12/18 02:59:13;;;;;;;20.37;8.90;;;2.30;99.90;;;;;;5096812;28;20020;-84
2023/12/18 03:01:39;;;;;;;25.67;11.10;;;2.30;99.90;;;;;;5096400;28;20023;-84
2023/12/18 03:04:04;;;;;;;24.37;9.73;;;2.30;99.90;;;;;;5097049;28;20016;-84
2023/12/18 03:06:30;;;;;;;20.67;8.87;;;2.30;99.90;;;;;;5096761;28;20426;-84
2023/12/18 03:08:55;;;;;;;23.10;9.90;;;2.20;99.90;;;;;;5096287;28;20122;-84
2023/12/18 03:11:21;;;;;;;20.53;9.27;;;2.20;99.90;;;;;;5114984;28;20093;-84
2023/12/18 03:13:46;;;;;;;22.87;10.53;;;2.20;99.90;;;;;;5096253;28;20027;-84
2023/12/18 03:16:14;;;;;;;24.47;10.23;;;2.20;99.90;;;;;;5096617;28;20028;-84
2023/12/18 03:18:39;;;;;;;23.10;10.23;;;2.20;99.90;;;;;;5096142;28;20028;-84
2023/12/18 03:21:10;;;;;;;23.10;10.17;;;2.20;99.90;;;;;;5096957;28;20024;-84
2023/12/18 03:23:36;;;;;;;22.17;9.90;;;2.20;99.90;;;;;;5096426;28;20034;-84
2023/12/18 03:26:01;;;;;;;22.50;10.10;;;2.20;99.90;;;;;;5113711;28;20110;-84
2023/12/18 03:28:27;;;;;;;19.60;9.13;;;2.10;99.90;;;;;;5096470;28;20455;-84
2023/12/18 03:30:52;;;;;;;25.30;10.83;;;2.20;99.90;;;;;;5096043;28;20434;-84
2023/12/18 03:33:19;;;;;;;20.73;9.07;;;2.10;99.90;;;;;;5096455;28;20023;-84
2023/12/18 03:35:44;;;;;;;25.07;10.40;;;2.20;99.90;;;;;;5095898;28;20040;-84
2023/12/18 03:38:11;;;;;;;21.27;9.47;;;2.10;99.90;;;;;;5096485;28;20053;-84
2023/12/18 03:40:36;;;;;;;22.83;9.87;;;2.10;99.90;;;;;;5092868;28;20048;-84
2023/12/18 03:43:02;;;;;;;25.43;11.17;;;2.10;99.90;;;;;;5093624;28;20036;-83
2023/12/18 03:45:28;;;;;;;24.50;9.77;;;2.10;99.90;;;;;;5094121;28;20028;-84
2023/12/18 03:47:53;;;;;;;25.50;10.13;;;2.10;99.90;;;;;;5092781;28;20035;-84
2023/12/18 03:50:19;;;;;;;21.30;10.30;;;2.00;99.90;;;;;;5093867;28;20020;-84
2023/12/18 03:52:45;;;;;;;27.33;11.40;;;2.00;99.90;;;;;;5093348;28;20031;-84
2023/12/18 03:55:10;;;;;;;22.93;11.13;;;2.00;99.90;;;;;;5092725;28;20055;-84
2023/12/18 03:57:36;;;;;;;23.43;10.57;;;2.00;99.90;;;;;;5092841;28;20028;-83
2023/12/18 04:00:02;;;;;;;20.97;9.90;;;2.00;99.90;;;;;;5092374;28;20056;-84
2023/12/18 04:02:28;;;;;;;21.70;9.83;;;2.00;99.90;;;;;;5093008;28;20043;-84
2023/12/18 04:04:54;;;;;;;26.27;9.87;;;2.10;99.90;;;;;;5092245;28;20024;-84
2023/12/18 04:07:20;;;;;;;20.20;9.60;;;2.00;99.90;;;;;;5093666;28;20028;-84
2023/12/18 04:09:45;;;;;;;28.80;10.60;;;2.00;99.90;;;;;;5092342;28;20119;-84
2023/12/18 04:12:11;;;;;;;21.50;9.80;;;2.00;99.90;;;;;;5092966;28;20039;-82
2023/12/18 04:14:37;;;;;;;20.93;9.13;;;2.00;99.90;;;;;;5092633;28;20035;-84
2023/12/18 04:17:02;;;;;;;20.00;9.40;;;2.00;99.90;;;;;;5092134;28;20059;-83
2023/12/18 04:19:28;;;;;;;23.07;10.23;;;2.00;99.90;;;;;;5092567;28;20488;-84
2023/12/18 04:21:53;;;;;;;19.70;8.90;;;2.00;99.90;;;;;;5092252;28;20048;-84
2023/12/18 04:24:19;;;;;;;25.87;10.43;;;2.00;99.90;;;;;;5092615;28;20023;-84
2023/12/18 04:26:44;;;;;;;24.73;10.00;;;2.00;99.90;;;;;;5093049;28;20083;-84
2023/12/18 04:29:10;;;;;;;19.53;9.50;;;2.00;99.90;;;;;;5092496;28;20028;-84
2023/12/18 04:31:36;;;;;;;20.20;9.53;;;1.90;99.90;;;;;;5092331;28;20016;-84
2023/12/18 04:34:01;;;;;;;23.00;10.03;;;1.90;99.90;;;;;;5092260;28;20409;-84
2023/12/18 04:36:27;;;;;;;22.40;9.33;;;1.90;99.90;;;;;;5096324;28;20028;-83
2023/12/18 04:38:52;;;;;;;23.60;9.97;;;1.90;99.90;;;;;;5095861;28;20078;-84
2023/12/18 04:41:22;;;;;;;19.13;9.33;;;1.90;99.90;;;;;;5095869;28;20055;-84
2023/12/18 04:43:48;;;;;;;19.90;9.23;;;1.90;99.90;;;;;;5095832;28;20029;-84
2023/12/18 04:46:14;;;;;;;22.17;9.43;;;1.90;99.90;;;;;;5096016;28;20028;-84
2023/12/18 04:48:41;;;;;;;25.07;9.47;;;1.90;99.90;;;;;;5097236;28;20035;-84
2023/12/18 04:51:07;;;;;;;19.47;9.80;;;1.80;99.90;;;;;;5095715;28;20020;-84
2023/12/18 04:53:33;;;;;;;29.23;9.17;;;1.80;99.90;;;;;;5095931;28;20077;-84
2023/12/18 04:55:59;;;;;;;31.77;10.03;;;1.70;99.90;;;;;;5095706;28;20028;-84
2023/12/18 04:58:25;;;;;;;22.03;9.00;;;1.70;99.90;;;;;;5097182;28;20058;-84
2023/12/18 05:00:50;;;;;;;23.77;9.03;;;1.60;99.90;;;;;;5095853;28;20115;-84
2023/12/18 05:03:16;;;;;;;22.10;8.87;;;1.60;99.90;;;;;;5095977;28;20024;-84
2023/12/18 05:05:41;;;;;;;25.63;9.03;;;1.60;99.90;;;;;;5095707;28;20109;-83
2023/12/18 05:08:07;;;;;;;22.33;9.13;;;1.60;99.90;;;;;;5094849;28;20028;-84
2023/12/18 05:10:32;;;;;;;23.10;9.43;;;1.60;99.90;;;;;;5095683;28;20020;-83
2023/12/18 05:12:59;;;;;;;22.80;9.20;;;1.60;99.90;;;;;;5096343;28;20433;-84
2023/12/18 05:15:24;;;;;;;20.90;9.13;;;1.60;99.90;;;;;;5095591;28;20113;-84
2023/12/18 05:17:50;;;;;;;20.20;8.90;;;1.60;99.90;;;;;;5095056;28;20484;-84
2023/12/18 05:20:16;;;;;;;20.93;9.27;;;1.60;99.90;;;;;;5096682;28;20039;-83
2023/12/18 05:22:41;;;;;;;25.70;9.37;;;1.60;99.90;;;;;;5096591;28;20032;-84
2023/12/18 05:25:09;;;;;;;22.53;9.30;;;1.60;99.90;;;;;;5095927;28;20481;-84
2023/12/18 05:27:34;;;;;;;21.70;8.33;;;1.70;99.90;;;;;;5095324;28;20032;-84
2023/12/18 05:30:00;;;;;;;21.63;9.40;;;1.70;99.90;;;;;;5094941;28;20031;-84
2023/12/18 05:32:25;;;;;;;21.23;9.47;;;1.70;99.90;;;;;;5096468;28;20051;-84
2023/12/18 05:34:51;;;;;;;21.33;9.10;;;1.70;99.90;;;;;;5094699;28;20024;-85
2023/12/18 05:37:16;;;;;;;19.97;9.07;;;1.70;99.90;;;;;;5095134;28;20461;-84
2023/12/18 05:39:42;;;;;;;19.30;9.27;;;1.80;99.90;;;;;;5097344;28;20028;-83
2023/12/18 05:42:07;;;;;;;19.83;9.93;;;1.80;99.90;;;;;;5098001;28;20024;-84
2023/12/18 05:44:33;;;;;;;18.10;9.53;;;1.80;99.90;;;;;;5116506;28;20086;-84
2023/12/18 05:46:59;;;;;;;24.33;10.40;;;1.80;99.90;;;;;;5097659;28;20050;-84
2023/12/18 05:49:24;;;;;;;20.57;9.90;;;1.80;99.90;;;;;;5098787;28;20400;-83
2023/12/18 05:51:50;;;;;;;22.17;9.20;;;1.80;99.90;;;;;;5097948;28;20072;-84
2023/12/18 05:54:15;;;;;;;28.53;9.90;;;1.80;99.90;;;;;;5098307;28;20413;-84
2023/12/18 05:56:41;;;;;;;18.90;8.90;;;1.80;99.90;;;;;;5116321;28;20038;-84
2023/12/18 05:59:06;;;;;;;23.30;10.53;;;1.80;99.90;;;;;;5115791;28;20361;-84
2023/12/18 06:01:32;;;;;;;20.27;10.00;;;1.80;99.90;;;;;;5098062;28;20035;-84
2023/12/18 06:03:58;;;;;;;22.20;9.83;;;1.80;99.90;;;;;;5097524;28;20341;-84
2023/12/18 06:06:23;;;;;;;22.17;9.90;;;1.80;99.90;;;;;;5097898;28;20432;-84
2023/12/18 06:08:49;;;;;;;21.37;9.50;;;1.70;99.90;;;;;;5097752;28;20028;-85
2023/12/18 06:11:15;;;;;;;19.70;9.53;;;1.80;99.90;;;;;;5115871;28;20098;-84
2023/12/18 06:13:41;;;;;;;23.07;10.83;;;1.70;99.90;;;;;;5097935;28;20380;-84
2023/12/18 06:16:07;;;;;;;22.50;10.17;;;1.80;99.90;;;;;;5097144;28;20027;-84
2023/12/18 06:18:32;;;;;;;17.00;8.83;;;1.70;99.90;;;;;;5097564;28;20088;-84
2023/12/18 06:21:03;;;;;;;23.03;10.33;;;1.70;99.90;;;;;;5097233;28;20093;-84
2023/12/18 06:23:28;;;;;;;22.70;9.77;;;1.80;99.90;;;;;;5097517;28;20028;-84
2023/12/18 06:25:54;;;;;;;22.57;9.93;;;1.80;99.90;;;;;;5096967;28;20459;-85
2023/12/18 06:28:19;;;;;;;18.73;9.37;;;1.70;99.90;;;;;;5115424;28;20055;-84
2023/12/18 06:30:45;;;;;;;19.70;9.23;;;1.70;99.90;;;;;;5097340;28;20024;-84
2023/12/18 06:33:10;;;;;;;20.77;9.87;;;1.80;99.90;;;;;;5097307;28;20500;-84
2023/12/18 06:35:36;;;;;;;21.13;9.87;;;1.80;99.90;;;;;;5091140;28;20032;-85
2023/12/18 06:38:01;;;;;;;21.07;9.70;;;1.70;99.90;;;;;;5104446;28;20027;-85
2023/12/18 06:40:27;;;;;;;21.23;9.20;;;1.80;99.90;;;;;;5085885;28;20055;-85
2023/12/18 06:42:52;;;;;;;20.27;9.67;;;1.70;99.90;;;;;;5086267;28;20069;-85
2023/12/18 06:45:18;;;;;;;20.10;9.23;;;1.70;99.90;;;;;;5086466;28;20060;-85
2023/12/18 06:47:43;;;;;;;19.30;8.83;;;1.70;99.90;;;;;;5086195;28;20038;-85
2023/12/18 06:50:09;;;;;;;18.50;8.43;;;1.80;99.90;;;;;;5093609;28;20284;-85
2023/12/18 06:52:35;;;;;;;19.23;9.20;;;1.70;99.90;;;;;;5095931;28;20388;-85
2023/12/18 06:55:00;;;;;;;19.50;8.90;;;1.70;99.90;;;;;;5090763;28;20023;-84
2023/12/18 06:57:26;;;;;;;18.07;9.40;;;1.60;99.90;;;;;;5109958;28;20028;-84
2023/12/18 06:59:52;;;;;;;19.63;9.40;;;1.60;99.90;;;;;;5090920;28;20461;-85
2023/12/18 07:02:17;;;;;;;21.30;10.17;;;1.70;99.90;;;;;;5086248;28;20357;-84
2023/12/18 07:04:43;;;;;;;21.83;9.27;;;1.60;99.90;;;;;;5085258;28;20114;-85
2023/12/18 07:07:08;;;;;;;20.53;8.80;;;1.70;99.90;;;;;;5103343;28;20032;-85
2023/12/18 07:09:34;;;;;;;17.80;8.47;;;1.70;99.90;;;;;;5103999;28;20081;-85
2023/12/18 07:11:59;;;;;;;20.60;9.93;;;1.70;99.90;;;;;;5103287;28;20078;-85
2023/12/18 07:14:25;;;;;;;18.83;8.73;;;1.70;99.90;;;;;;5085505;28;20015;-84
2023/12/18 07:16:52;;;;;;;21.13;9.53;;;1.60;99.90;;;;;;5085216;28;20046;-85
2023/12/18 07:19:18;;;;;;;23.17;9.10;;;1.60;99.90;;;;;;5085514;28;20020;-84
2023/12/18 07:21:44;;;;;;;18.47;8.50;;;1.60;99.90;;;;;;5103080;28;20035;-84
2023/12/18 07:24:10;;;;;;;20.77;9.30;;;1.60;99.90;;;;;;5084573;28;20030;-85
2023/12/18 07:26:35;;;;;;;19.00;8.77;;;1.50;99.90;;;;;;5103618;28;20084;-85
2023/12/18 07:29:01;;;;;;;17.93;8.30;;;1.50;99.90;;;;;;5103247;28;20027;-84
2023/12/18 07:31:26;;;;;;;25.40;10.30;;;1.50;99.90;;;;;;5085122;28;20023;-84
2023/12/18 07:33:52;;;;;;;19.87;9.43;;;1.40;99.90;;;;;;5084909;28;20425;-85
2023/12/18 07:36:18;;;;;;;17.30;8.33;;;1.40;99.90;;;;;;5085863;28;20091;-85
2023/12/18 07:38:45;;;;;;;21.00;9.07;;;1.50;99.90;;;;;;5085005;28;20020;-84
2023/12/18 07:41:11;;;;;;;18.60;8.83;;;1.50;99.90;;;;;;5083904;28;20092;-85
2023/12/18 07:43:37;;;;;;;21.07;8.80;;;1.50;99.90;;;;;;5112580;28;20069;-84
2023/12/18 07:46:03;;;;;;;18.83;8.40;;;1.50;99.90;;;;;;5095668;28;20469;-84
2023/12/18 07:48:31;;;;;;;16.00;8.67;;;1.50;99.90;;;;;;5096279;28;20385;-84
2023/12/18 07:50:57;;;;;;;17.73;8.10;;;1.50;99.90;;;;;;5095944;28;20031;-84
2023/12/18 07:53:23;;;;;;;18.10;8.77;;;1.40;99.90;;;;;;5096217;28;20046;-84
2023/12/18 07:55:49;;;;;;;20.97;8.67;;;1.50;99.90;;;;;;5096375;28;20066;-83
2023/12/18 07:58:14;;;;;;;19.03;8.87;;;1.40;99.90;;;;;;5095706;28;20055;-84
2023/12/18 08:00:40;;;;;;;16.40;8.40;;;1.40;99.90;;;;;;5096431;28;20020;-84
2023/12/18 08:03:05;;;;;;;17.30;8.90;;;1.50;99.90;;;;;;5113672;28;20488;-84
2023/12/18 08:05:31;;;;;;;15.13;8.07;;;1.50;99.90;;;;;;5096061;28;20032;-84
2023/12/18 08:07:57;;;;;;;16.67;8.20;;;1.50;99.90;;;;;;5096110;28;20449;-84
2023/12/18 08:10:22;;;;;;;19.10;8.93;;;1.50;99.90;;;;;;5099771;28;20031;-84
2023/12/18 08:12:51;;;;;;;15.53;8.33;;;1.50;99.90;;;;;;5118360;28;20157;-84
2023/12/18 08:15:17;;;;;;;18.03;8.17;;;1.50;99.90;;;;;;5117799;28;20052;-84
2023/12/18 08:17:42;;;;;;;17.97;8.90;;;1.50;99.90;;;;;;5099835;28;20061;-85
2023/12/18 08:20:08;;;;;;;17.67;8.20;;;1.60;99.90;;;;;;5099835;28;20103;-85
2023/12/18 08:22:34;;;;;;;15.73;7.53;;;1.60;99.90;;;;;;5100290;28;20073;-84
2023/12/18 08:25:01;;;;;;;19.57;7.97;;;1.60;99.90;;;;;;5099499;28;20475;-85
2023/12/18 08:27:28;;;;;;;19.10;8.33;;;1.60;99.90;;;;;;5100010;28;20032;-85
2023/12/18 08:29:54;;;;;;;20.47;8.07;;;1.60;99.90;;;;;;5099635;28;20024;-84
2023/12/18 08:32:20;;;;;;;15.57;7.40;;;1.60;99.90;;;;;;5117887;28;20030;-84
2023/12/18 08:34:48;;;;;;;12.80;6.87;;;1.60;99.90;;;;;;5099847;28;20106;-84
2023/12/18 08:37:13;;;;;;;17.37;8.33;;;1.60;99.90;;;;;;5099318;28;20032;-84
2023/12/18 08:39:39;;;;;;;16.40;7.93;;;1.70;99.90;;;;;;5099416;28;20111;-84
2023/12/18 08:42:04;;;;;;;16.77;8.00;;;1.60;99.90;;;;;;5117241;28;20030;-85
2023/12/18 08:44:30;;;;;;;18.50;8.13;;;1.60;99.90;;;;;;5117736;28;20028;-84
2023/12/18 08:46:56;;;;;;;17.40;8.13;;;1.70;99.90;;;;;;5099335;28;20421;-86
2023/12/18 08:49:21;;;;;;;13.80;7.43;;;1.70;99.90;;;;;;5099427;28;20028;-83
2023/12/18 08:51:47;;;;;;;16.47;7.50;;;1.70;99.90;;;;;;5099176;28;20111;-85
2023/12/18 08:54:12;;;;;;;16.57;8.20;;;1.70;99.90;;;;;;5098957;28;20020;-85
2023/12/18 08:56:38;;;;;;;19.77;7.93;;;1.80;99.90;;;;;;5117350;28;20028;-85
2023/12/18 08:59:04;;;;;;;14.60;7.53;;;1.80;99.90;;;;;;5117210;28;20024;-85
2023/12/18 09:01:29;;;;;;;16.00;7.97;;;1.90;99.90;;;;;;5117076;28;20027;-85
2023/12/18 09:03:55;;;;;;;17.93;8.07;;;1.90;99.90;;;;;;5099049;28;20114;-83
2023/12/18 09:06:21;;;;;;;19.27;8.40;;;1.90;99.90;;;;;;5098599;28;20032;-83
2023/12/18 09:08:46;;;;;;;16.87;7.90;;;2.00;99.90;;;;;;5099130;28;20063;-83
2023/12/18 09:11:12;;;;;;;24.60;10.60;;;2.00;99.90;;;;;;5098305;28;20468;-84
2023/12/18 09:13:38;;;;;;;18.43;8.47;;;2.10;99.90;;;;;;5117159;28;20028;-83
2023/12/18 09:16:05;;;;;;;21.07;8.77;;;2.10;99.90;;;;;;5098606;28;20028;-84
2023/12/18 09:18:31;;;;;;;20.70;8.90;;;2.20;99.90;;;;;;5098770;28;20028;-82
2023/12/18 09:20:57;;;;;;;15.77;7.63;;;2.20;99.90;;;;;;5098364;28;20020;-82
2023/12/18 09:23:22;;;;;;;18.53;8.23;;;2.30;99.90;;;;;;5098754;28;20083;-83
2023/12/18 09:25:48;;;;;;;20.07;7.73;;;2.30;99.90;;;;;;5098874;28;20028;-83
2023/12/18 09:28:13;;;;;;;15.77;7.50;;;2.40;99.90;;;;;;5098463;28;20063;-84
2023/12/18 09:30:40;;;;;;;17.30;7.73;;;2.40;99.90;;;;;;5098776;28;20043;-83
2023/12/18 09:33:06;;;;;;;18.03;8.97;;;2.50;99.90;;;;;;5098150;28;20024;-83
2023/12/18 09:35:32;;;;;;;18.53;7.97;;;2.50;99.90;;;;;;5098866;28;20028;-84
2023/12/18 09:37:58;;;;;;;17.13;7.37;;;2.50;99.90;;;;;;5098603;28;20037;-83
2023/12/18 09:40:24;;;;;;;18.00;8.07;;;2.60;99.90;;;;;;5116227;28;20126;-84
2023/12/18 09:42:54;;;;;;;16.93;7.27;;;2.60;99.90;;;;;;5098577;28;20036;-84
2023/12/18 09:45:25;;;;;;;17.73;8.10;;;2.70;99.90;;;;;;5097985;28;20034;-83
2023/12/18 09:47:51;;;;;;;18.02;8.15;;;2.80;99.90;;;;;;5098681;28;20031;-83
2023/12/18 09:50:17;;;;;;;16.13;8.10;;;2.80;99.90;;;;;;5115890;28;20028;-84
2023/12/18 09:53:06;;;;;;;15.10;7.77;;;2.90;99.90;;;;;;5098476;28;20019;-83
2023/12/18 09:55:32;;;;;;;12.27;6.40;;;3.00;99.90;;;;;;5098370;28;20066;-84
2023/12/18 09:58:00;;;;;;;17.83;7.93;;;3.00;99.90;;;;;;5098154;28;20024;-84
2023/12/18 10:00:27;;;;;;;12.90;7.73;;;3.10;99.90;;;;;;5098099;28;20024;-83
2023/12/18 10:02:55;;;;;;;16.93;7.47;;;3.20;99.90;;;;;;5098137;28;20114;-83
2023/12/18 10:05:21;;;;;;;16.13;7.50;;;3.20;99.90;;;;;;5097569;28;20035;-83
2023/12/18 10:07:46;;;;;;;16.13;7.70;;;3.30;99.90;;;;;;5115894;28;20040;-82
2023/12/18 10:10:12;;;;;;;13.50;7.03;;;3.30;99.90;;;;;;5097480;28;20027;-84
2023/12/18 10:12:38;;;;;;;13.97;7.20;;;3.40;99.90;;;;;;5116102;28;20096;-84
2023/12/18 10:15:06;;;;;;;19.97;7.90;;;3.40;99.90;;;;;;5097536;28;20118;-84
2023/12/18 10:17:33;;;;;;;15.53;7.40;;;3.50;99.90;;;;;;5115860;28;20070;-83
2023/12/18 10:20:02;;;;;;;14.93;7.50;;;3.50;99.90;;;;;;5113598;28;20027;-83
2023/12/18 10:22:28;;;;;;;14.57;7.13;;;3.50;99.90;;;;;;5085877;28;20464;-84
2023/12/18 10:24:56;;;;;;;16.67;7.90;;;3.60;99.90;;;;;;5085984;28;20061;-85
2023/12/18 10:27:25;;;;;;;14.47;7.27;;;3.60;99.90;;;;;;5085387;28;20107;-86
2023/12/18 10:29:53;;;;;;;18.20;8.20;;;3.60;99.90;;;;;;5085967;28;20085;-84
2023/12/18 10:32:21;;;;;;;16.97;8.93;;;3.70;99.90;;;;;;5084758;28;20032;-84
2023/12/18 10:34:48;;;;;;;17.00;8.40;;;3.70;99.90;;;;;;5085960;28;20028;-84
2023/12/18 10:37:15;;;;;;;15.50;7.30;;;3.80;99.90;;;;;;5096620;28;20024;-84
2023/12/18 10:39:41;;;;;;;18.27;7.80;;;3.80;99.90;;;;;;5096517;28;20035;-83
2023/12/18 10:42:20;;;;;;;16.57;7.93;;;3.80;99.90;;;;;;5114247;28;20035;-85
2023/12/18 10:44:47;;;;;;;18.37;7.83;;;3.90;99.90;;;;;;5096665;28;20047;-85
2023/12/18 10:47:16;;;;;;;13.53;7.43;;;4.00;99.90;;;;;;5096715;28;20077;-84
2023/12/18 10:49:42;;;;;;;16.70;8.07;;;4.00;99.90;;;;;;5111982;28;20027;-85
2023/12/18 10:52:09;;;;;;;16.70;7.90;;;4.00;99.90;;;;;;5084380;28;20059;-85
2023/12/18 10:54:36;;;;;;;14.10;7.37;;;4.10;99.90;;;;;;5085031;28;20119;-84
2023/12/18 10:57:04;;;;;;;12.70;6.47;;;4.10;99.90;;;;;;5084553;28;20040;-83
2023/12/18 10:59:32;;;;;;;18.00;7.67;;;4.20;99.90;;;;;;5084892;28;20085;-85
2023/12/18 11:01:58;;;;;;;15.63;7.67;;;4.20;99.90;;;;;;5084568;28;20103;-84
2023/12/18 11:04:25;;;;;;;16.17;6.73;;;4.20;99.90;;;;;;5084446;28;20028;-84
2023/12/18 11:06:53;;;;;;;16.73;7.47;;;4.20;99.90;;;;;;5084524;28;20114;-85
2023/12/18 11:09:18;;;;;;;12.33;6.77;;;4.30;99.90;;;;;;5084972;28;20210;-85
2023/12/18 11:11:44;;;;;;;15.70;7.20;;;4.40;99.90;;;;;;5104090;28;20559;-85
2023/12/18 11:14:32;;;;;;;18.03;7.50;;;4.40;99.90;;;;;;5084074;28;20020;-85
2023/12/18 11:17:05;;;;;;;14.60;6.97;;;4.40;99.90;;;;;;5091996;28;20040;-85
2023/12/18 11:19:54;;;;;;;14.40;6.93;;;4.50;99.90;;;;;;5085275;28;20207;-85
2023/12/18 11:22:44;;;;;;;16.43;6.67;;;4.50;99.90;;;;;;5073678;28;20059;-84
2023/12/18 11:25:10;;;;;;;15.93;7.17;;;4.50;99.90;;;;;;5084366;28;20035;-85
2023/12/18 11:27:37;;;;;;;16.37;7.67;;;4.60;99.90;;;;;;5084881;28;20108;-86
2023/12/18 11:30:03;;;;;;;14.17;6.40;;;4.60;99.90;;;;;;5085081;28;20047;-86
2023/12/18 11:32:44;;;;;;;15.33;7.27;;;4.70;99.90;;;;;;5084320;28;20114;-86
2023/12/18 11:35:12;;;;;;;14.05;7.43;;;4.80;99.90;;;;;;5084254;28;20028;-85
2023/12/18 11:37:49;;;;;;;13.63;6.93;;;4.90;99.90;;;;;;5084670;28;20039;-86
2023/12/18 11:40:33;;;;;;;12.80;6.57;;;4.90;99.90;;;;;;5083764;28;20044;-85
2023/12/18 11:42:59;;;;;;;14.33;6.83;;;4.90;99.90;;;;;;5084541;28;20114;-85
2023/12/18 11:45:25;;;;;;;15.80;7.83;;;5.00;99.90;;;;;;5084462;28;20111;-85
2023/12/18 11:48:00;;;;;;;13.97;6.67;;;5.10;99.90;;;;;;5084693;28;20035;-85
2023/12/18 11:50:26;;;;;;;14.37;6.47;;;5.10;99.90;;;;;;5083978;28;20024;-84
2023/12/18 11:52:56;;;;;;;14.07;6.80;;;5.20;99.90;;;;;;5084273;28;20038;-85
2023/12/18 11:55:39;;;;;;;14.50;7.70;;;5.30;99.90;;;;;;5084336;28;20118;-85
2023/12/18 11:58:06;;;;;;;14.83;7.30;;;5.40;99.90;;;;;;5092544;28;20019;-86
2023/12/18 12:00:33;;;;;;;14.07;6.13;;;5.50;99.90;;;;;;5113653;28;20031;-85
2023/12/18 12:02:59;;;;;;;13.77;6.73;;;5.60;99.90;;;;;;5096269;28;20024;-85
2023/12/18 12:05:25;;;;;;;11.20;6.40;;;5.70;99.90;;;;;;5095601;28;20049;-85
2023/12/18 12:07:54;;;;;;;13.57;6.53;;;5.80;99.90;;;;;;5113998;28;20039;-85
2023/12/18 12:10:20;;;;;;;12.47;6.20;;;5.90;99.90;;;;;;5095980;28;20039;-85
2023/12/18 12:12:55;;;;;;;13.33;6.50;;;6.10;99.90;;;;;;5096310;28;20145;-85
2023/12/18 12:15:24;;;;;;;11.77;6.23;;;6.20;99.90;;;;;;5094928;28;20059;-86
2023/12/18 12:18:06;;;;;;;15.17;6.93;;;6.40;99.90;;;;;;5113845;28;20483;-83
2023/12/18 12:20:32;;;;;;;13.25;6.47;;;6.60;99.90;;;;;;5103891;28;20028;-84
2023/12/18 12:22:58;;;;;;;13.73;6.27;;;6.70;99.90;;;;;;5095511;28;20030;-82
2023/12/18 12:25:24;;;;;;;10.30;5.63;;;6.80;99.90;;;;;;5094965;28;20028;-82
2023/12/18 12:27:51;;;;;;;12.77;6.50;;;6.70;99.90;;;;;;5095770;28;20055;-83
2023/12/18 12:30:17;;;;;;;11.50;5.77;;;6.60;99.90;;;;;;5094255;28;20023;-82
2023/12/18 12:32:43;;;;;;;12.03;6.20;;;6.60;99.90;;;;;;5096211;28;20032;-84
2023/12/18 12:35:11;;;;;;;11.80;5.73;;;6.60;99.90;;;;;;5095973;28;20030;-83
2023/12/18 12:37:36;;;;;;;13.80;6.57;;;6.60;99.90;;;;;;5096047;28;20084;-84
2023/12/18 12:40:09;;;;;;;12.30;6.53;;;6.60;99.90;;;;;;5113357;28;20435;-84